sensor_id;sensor_type;location;lat;lon;timestamp;P1;durP1;ratioP1;P2;durP2;ratioP2
13349;SDS011;6744;53.190;6.576;2022-08-18T00:04:34;6.73;;;3.80;;
13349;SDS011;6744;53.190;6.576;2022-08-18T00:07:06;6.63;;;3.63;;
13349;SDS011;6744;53.190;6.576;2022-08-18T00:09:36;6.00;;;3.90;;
13349;SDS011;6744;53.190;6.576;2022-08-18T00:12:03;8.87;;;4.20;;
13349;SDS011;6744;53.190;6.576;2022-08-18T00:14:32;7.77;;;4.40;;
13349;SDS011;6744;53.190;6.576;2022-08-18T00:16:58;6.80;;;4.40;;
13349;SDS011;6744;53.190;6.576;2022-08-18T00:19:24;8.00;;;4.37;;
13349;SDS011;6744;53.190;6.576;2022-08-18T00:21:49;7.70;;;4.53;;
13349;SDS011;6744;53.190;6.576;2022-08-18T00:24:15;8.13;;;4.90;;
13349;SDS011;6744;53.190;6.576;2022-08-18T00:26:40;5.70;;;4.20;;
13349;SDS011;6744;53.190;6.576;2022-08-18T00:29:05;6.37;;;4.40;;
13349;SDS011;6744;53.190;6.576;2022-08-18T00:31:31;5.33;;;4.30;;
13349;SDS011;6744;53.190;6.576;2022-08-18T00:33:57;9.33;;;4.40;;
13349;SDS011;6744;53.190;6.576;2022-08-18T00:36:22;6.13;;;4.10;;
13349;SDS011;6744;53.190;6.576;2022-08-18T00:38:48;7.50;;;4.67;;
13349;SDS011;6744;53.190;6.576;2022-08-18T00:41:13;5.17;;;4.20;;
13349;SDS011;6744;53.190;6.576;2022-08-18T00:43:57;6.50;;;4.10;;
13349;SDS011;6744;53.190;6.576;2022-08-18T00:46:27;8.77;;;4.40;;
13349;SDS011;6744;53.190;6.576;2022-08-18T00:48:54;5.63;;;3.90;;
13349;SDS011;6744;53.190;6.576;2022-08-18T00:53:54;6.60;;;4.47;;
13349;SDS011;6744;53.190;6.576;2022-08-18T00:56:28;7.37;;;4.40;;
13349;SDS011;6744;53.190;6.576;2022-08-18T00:59:00;7.60;;;4.73;;
13349;SDS011;6744;53.190;6.576;2022-08-18T01:01:29;7.10;;;4.67;;
13349;SDS011;6744;53.190;6.576;2022-08-18T01:03:58;6.23;;;4.77;;
13349;SDS011;6744;53.190;6.576;2022-08-18T01:06:40;7.43;;;4.80;;
13349;SDS011;6744;53.190;6.576;2022-08-18T01:09:08;7.30;;;4.80;;
13349;SDS011;6744;53.190;6.576;2022-08-18T01:11:34;8.17;;;5.00;;
13349;SDS011;6744;53.190;6.576;2022-08-18T01:14:01;6.57;;;5.07;;
13349;SDS011;6744;53.190;6.576;2022-08-18T01:16:28;7.50;;;4.60;;
13349;SDS011;6744;53.190;6.576;2022-08-18T01:19:12;7.30;;;4.70;;
13349;SDS011;6744;53.190;6.576;2022-08-18T01:21:59;7.33;;;4.77;;
13349;SDS011;6744;53.190;6.576;2022-08-18T01:24:30;7.13;;;4.63;;
13349;SDS011;6744;53.190;6.576;2022-08-18T01:27:16;7.40;;;4.90;;
13349;SDS011;6744;53.190;6.576;2022-08-18T01:29:43;6.33;;;4.67;;
13349;SDS011;6744;53.190;6.576;2022-08-18T01:32:10;6.47;;;4.50;;
13349;SDS011;6744;53.190;6.576;2022-08-18T01:34:36;8.10;;;5.00;;
13349;SDS011;6744;53.190;6.576;2022-08-18T01:37:03;4.83;;;4.43;;
13349;SDS011;6744;53.190;6.576;2022-08-18T01:39:29;6.30;;;4.53;;
13349;SDS011;6744;53.190;6.576;2022-08-18T01:41:55;6.20;;;4.63;;
13349;SDS011;6744;53.190;6.576;2022-08-18T01:44:20;5.60;;;4.60;;
13349;SDS011;6744;53.190;6.576;2022-08-18T01:46:46;6.70;;;4.70;;
13349;SDS011;6744;53.190;6.576;2022-08-18T01:49:11;5.43;;;4.60;;
13349;SDS011;6744;53.190;6.576;2022-08-18T01:51:37;9.83;;;5.20;;
13349;SDS011;6744;53.190;6.576;2022-08-18T01:54:07;5.17;;;4.40;;
13349;SDS011;6744;53.190;6.576;2022-08-18T01:56:35;6.17;;;4.73;;
13349;SDS011;6744;53.190;6.576;2022-08-18T01:59:01;8.13;;;5.43;;
13349;SDS011;6744;53.190;6.576;2022-08-18T02:01:26;6.33;;;4.97;;
13349;SDS011;6744;53.190;6.576;2022-08-18T02:03:53;7.67;;;5.00;;
13349;SDS011;6744;53.190;6.576;2022-08-18T02:06:19;7.53;;;5.00;;
13349;SDS011;6744;53.190;6.576;2022-08-18T02:08:45;9.13;;;5.77;;
13349;SDS011;6744;53.190;6.576;2022-08-18T02:11:11;7.90;;;5.00;;
13349;SDS011;6744;53.190;6.576;2022-08-18T02:13:37;6.03;;;4.87;;
13349;SDS011;6744;53.190;6.576;2022-08-18T02:16:02;6.20;;;4.63;;
13349;SDS011;6744;53.190;6.576;2022-08-18T02:18:30;6.57;;;5.20;;
13349;SDS011;6744;53.190;6.576;2022-08-18T02:20:58;6.97;;;5.33;;
13349;SDS011;6744;53.190;6.576;2022-08-18T02:23:31;6.50;;;5.23;;
13349;SDS011;6744;53.190;6.576;2022-08-18T02:25:57;6.30;;;4.93;;
13349;SDS011;6744;53.190;6.576;2022-08-18T02:28:22;9.93;;;5.70;;
13349;SDS011;6744;53.190;6.576;2022-08-18T02:30:48;7.33;;;5.53;;
13349;SDS011;6744;53.190;6.576;2022-08-18T02:33:13;11.17;;;6.37;;
13349;SDS011;6744;53.190;6.576;2022-08-18T02:35:38;11.13;;;5.43;;
13349;SDS011;6744;53.190;6.576;2022-08-18T02:38:05;10.10;;;5.77;;
13349;SDS011;6744;53.190;6.576;2022-08-18T02:40:31;11.57;;;6.10;;
13349;SDS011;6744;53.190;6.576;2022-08-18T02:42:58;9.97;;;6.20;;
13349;SDS011;6744;53.190;6.576;2022-08-18T02:45:24;8.93;;;5.23;;
13349;SDS011;6744;53.190;6.576;2022-08-18T02:47:53;7.03;;;5.03;;
13349;SDS011;6744;53.190;6.576;2022-08-18T02:50:19;8.23;;;4.90;;
13349;SDS011;6744;53.190;6.576;2022-08-18T02:52:44;7.07;;;5.37;;
13349;SDS011;6744;53.190;6.576;2022-08-18T02:55:10;9.63;;;5.40;;
13349;SDS011;6744;53.190;6.576;2022-08-18T02:57:35;7.33;;;4.87;;
13349;SDS011;6744;53.190;6.576;2022-08-18T03:00:06;8.73;;;5.17;;
13349;SDS011;6744;53.190;6.576;2022-08-18T03:02:34;7.97;;;4.37;;
13349;SDS011;6744;53.190;6.576;2022-08-18T03:05:00;9.27;;;5.43;;
13349;SDS011;6744;53.190;6.576;2022-08-18T03:07:25;7.00;;;5.03;;
13349;SDS011;6744;53.190;6.576;2022-08-18T03:09:51;5.50;;;4.80;;
13349;SDS011;6744;53.190;6.576;2022-08-18T03:12:16;5.83;;;4.60;;
13349;SDS011;6744;53.190;6.576;2022-08-18T03:14:41;7.30;;;4.70;;
13349;SDS011;6744;53.190;6.576;2022-08-18T03:17:07;6.07;;;4.70;;
13349;SDS011;6744;53.190;6.576;2022-08-18T03:19:33;5.10;;;4.60;;
13349;SDS011;6744;53.190;6.576;2022-08-18T03:21:59;6.57;;;4.30;;
13349;SDS011;6744;53.190;6.576;2022-08-18T03:24:25;6.37;;;4.47;;
13349;SDS011;6744;53.190;6.576;2022-08-18T03:26:52;6.13;;;4.53;;
13349;SDS011;6744;53.190;6.576;2022-08-18T03:29:19;6.17;;;4.83;;
13349;SDS011;6744;53.190;6.576;2022-08-18T03:31:45;5.57;;;4.60;;
13349;SDS011;6744;53.190;6.576;2022-08-18T03:34:13;5.90;;;4.10;;
13349;SDS011;6744;53.190;6.576;2022-08-18T03:36:39;6.90;;;4.67;;
13349;SDS011;6744;53.190;6.576;2022-08-18T03:39:07;6.83;;;5.00;;
13349;SDS011;6744;53.190;6.576;2022-08-18T03:41:33;7.93;;;5.00;;
13349;SDS011;6744;53.190;6.576;2022-08-18T03:44:02;5.83;;;4.43;;
13349;SDS011;6744;53.190;6.576;2022-08-18T03:46:28;7.57;;;4.90;;
13349;SDS011;6744;53.190;6.576;2022-08-18T03:48:54;8.00;;;5.07;;
13349;SDS011;6744;53.190;6.576;2022-08-18T03:51:22;8.00;;;5.13;;
13349;SDS011;6744;53.190;6.576;2022-08-18T03:53:49;6.80;;;5.20;;
13349;SDS011;6744;53.190;6.576;2022-08-18T03:56:18;6.97;;;5.57;;
13349;SDS011;6744;53.190;6.576;2022-08-18T03:58:50;7.10;;;4.67;;
13349;SDS011;6744;53.190;6.576;2022-08-18T04:01:19;7.00;;;5.80;;
13349;SDS011;6744;53.190;6.576;2022-08-18T04:03:48;6.87;;;5.30;;
13349;SDS011;6744;53.190;6.576;2022-08-18T04:06:25;6.13;;;5.07;;
13349;SDS011;6744;53.190;6.576;2022-08-18T04:08:59;7.70;;;5.30;;
13349;SDS011;6744;53.190;6.576;2022-08-18T04:11:29;6.67;;;5.33;;
13349;SDS011;6744;53.190;6.576;2022-08-18T04:13:55;6.43;;;5.30;;
13349;SDS011;6744;53.190;6.576;2022-08-18T04:16:24;7.20;;;4.77;;
13349;SDS011;6744;53.190;6.576;2022-08-18T04:18:50;8.20;;;5.50;;
13349;SDS011;6744;53.190;6.576;2022-08-18T04:21:16;6.33;;;5.07;;
13349;SDS011;6744;53.190;6.576;2022-08-18T04:23:42;6.03;;;4.90;;
13349;SDS011;6744;53.190;6.576;2022-08-18T04:26:08;5.90;;;5.30;;
13349;SDS011;6744;53.190;6.576;2022-08-18T04:28:35;7.70;;;5.70;;
13349;SDS011;6744;53.190;6.576;2022-08-18T04:31:05;6.10;;;4.90;;
13349;SDS011;6744;53.190;6.576;2022-08-18T04:33:32;5.23;;;4.73;;
13349;SDS011;6744;53.190;6.576;2022-08-18T04:35:57;6.23;;;5.33;;
13349;SDS011;6744;53.190;6.576;2022-08-18T04:38:22;6.00;;;5.27;;
13349;SDS011;6744;53.190;6.576;2022-08-18T04:40:48;7.70;;;5.40;;
13349;SDS011;6744;53.190;6.576;2022-08-18T04:43:14;5.77;;;5.27;;
13349;SDS011;6744;53.190;6.576;2022-08-18T04:45:46;5.83;;;4.83;;
13349;SDS011;6744;53.190;6.576;2022-08-18T04:48:12;5.73;;;4.37;;
13349;SDS011;6744;53.190;6.576;2022-08-18T04:50:40;5.73;;;5.10;;
13349;SDS011;6744;53.190;6.576;2022-08-18T04:53:05;6.87;;;5.20;;
13349;SDS011;6744;53.190;6.576;2022-08-18T04:55:50;5.13;;;4.63;;
13349;SDS011;6744;53.190;6.576;2022-08-18T04:58:17;5.77;;;4.80;;
13349;SDS011;6744;53.190;6.576;2022-08-18T05:00:43;5.53;;;4.97;;
13349;SDS011;6744;53.190;6.576;2022-08-18T05:03:10;5.97;;;4.93;;
13349;SDS011;6744;53.190;6.576;2022-08-18T05:05:36;5.80;;;4.90;;
13349;SDS011;6744;53.190;6.576;2022-08-18T05:08:01;5.07;;;4.60;;
13349;SDS011;6744;53.190;6.576;2022-08-18T05:10:27;5.63;;;5.10;;
13349;SDS011;6744;53.190;6.576;2022-08-18T05:12:52;6.83;;;5.37;;
13349;SDS011;6744;53.190;6.576;2022-08-18T05:15:17;6.73;;;6.03;;
13349;SDS011;6744;53.190;6.576;2022-08-18T05:17:43;7.03;;;6.33;;
13349;SDS011;6744;53.190;6.576;2022-08-18T05:20:09;7.30;;;6.60;;
13349;SDS011;6744;53.190;6.576;2022-08-18T05:22:36;7.97;;;7.17;;
13349;SDS011;6744;53.190;6.576;2022-08-18T05:25:05;7.43;;;6.83;;
13349;SDS011;6744;53.190;6.576;2022-08-18T05:27:32;8.57;;;7.77;;
13349;SDS011;6744;53.190;6.576;2022-08-18T05:29:59;9.17;;;8.37;;
13349;SDS011;6744;53.190;6.576;2022-08-18T05:32:24;8.90;;;8.13;;
13349;SDS011;6744;53.190;6.576;2022-08-18T05:34:50;7.97;;;7.20;;
13349;SDS011;6744;53.190;6.576;2022-08-18T05:37:25;7.53;;;6.93;;
13349;SDS011;6744;53.190;6.576;2022-08-18T05:39:57;7.03;;;6.37;;
13349;SDS011;6744;53.190;6.576;2022-08-18T05:42:25;7.30;;;6.70;;
13349;SDS011;6744;53.190;6.576;2022-08-18T05:44:53;7.60;;;6.90;;
13349;SDS011;6744;53.190;6.576;2022-08-18T05:47:21;7.67;;;7.03;;
13349;SDS011;6744;53.190;6.576;2022-08-18T05:49:49;7.80;;;7.10;;
13349;SDS011;6744;53.190;6.576;2022-08-18T05:52:21;7.03;;;6.17;;
13349;SDS011;6744;53.190;6.576;2022-08-18T05:54:51;6.67;;;6.00;;
13349;SDS011;6744;53.190;6.576;2022-08-18T05:57:41;5.77;;;5.17;;
13349;SDS011;6744;53.190;6.576;2022-08-18T06:00:09;6.77;;;5.47;;
13349;SDS011;6744;53.190;6.576;2022-08-18T06:05:51;6.07;;;4.90;;
13349;SDS011;6744;53.190;6.576;2022-08-18T06:08:17;6.93;;;4.97;;
13349;SDS011;6744;53.190;6.576;2022-08-18T06:10:47;7.50;;;4.50;;
13349;SDS011;6744;53.190;6.576;2022-08-18T06:13:13;5.43;;;4.40;;
13349;SDS011;6744;53.190;6.576;2022-08-18T06:15:43;6.17;;;4.50;;
13349;SDS011;6744;53.190;6.576;2022-08-18T06:29:21;7.30;;;4.37;;
13349;SDS011;6744;53.190;6.576;2022-08-18T06:37:30;5.20;;;4.50;;
13349;SDS011;6744;53.190;6.576;2022-08-18T06:39:58;7.57;;;4.77;;
13349;SDS011;6744;53.190;6.576;2022-08-18T06:42:24;6.83;;;4.40;;
13349;SDS011;6744;53.190;6.576;2022-08-18T06:44:56;6.63;;;4.20;;
13349;SDS011;6744;53.190;6.576;2022-08-18T06:50:26;6.97;;;3.90;;
13349;SDS011;6744;53.190;6.576;2022-08-18T06:52:55;7.17;;;3.40;;
13349;SDS011;6744;53.190;6.576;2022-08-18T07:01:04;5.77;;;2.90;;
13349;SDS011;6744;53.190;6.576;2022-08-18T07:11:25;7.20;;;3.40;;
13349;SDS011;6744;53.190;6.576;2022-08-18T07:13:53;8.50;;;3.07;;
13349;SDS011;6744;53.190;6.576;2022-08-18T07:16:38;8.17;;;2.97;;
13349;SDS011;6744;53.190;6.576;2022-08-18T07:21:33;9.00;;;3.43;;
13349;SDS011;6744;53.190;6.576;2022-08-18T07:24:06;5.63;;;2.90;;
13349;SDS011;6744;53.190;6.576;2022-08-18T07:29:28;5.80;;;2.83;;
13349;SDS011;6744;53.190;6.576;2022-08-18T07:31:54;7.90;;;3.47;;
13349;SDS011;6744;53.190;6.576;2022-08-18T07:37:00;8.57;;;3.60;;
13349;SDS011;6744;53.190;6.576;2022-08-18T07:39:38;9.57;;;3.37;;
13349;SDS011;6744;53.190;6.576;2022-08-18T07:45:03;7.73;;;3.30;;
13349;SDS011;6744;53.190;6.576;2022-08-18T07:47:51;7.87;;;3.60;;
13349;SDS011;6744;53.190;6.576;2022-08-18T07:50:19;8.27;;;3.07;;
13349;SDS011;6744;53.190;6.576;2022-08-18T07:52:50;8.70;;;3.20;;
13349;SDS011;6744;53.190;6.576;2022-08-18T07:55:29;4.97;;;2.63;;
13349;SDS011;6744;53.190;6.576;2022-08-18T07:58:03;6.27;;;3.20;;
13349;SDS011;6744;53.190;6.576;2022-08-18T08:01:18;5.07;;;2.87;;
13349;SDS011;6744;53.190;6.576;2022-08-18T08:03:46;7.67;;;3.10;;
13349;SDS011;6744;53.190;6.576;2022-08-18T08:06:19;5.87;;;3.17;;
13349;SDS011;6744;53.190;6.576;2022-08-18T08:11:40;7.43;;;3.00;;
13349;SDS011;6744;53.190;6.576;2022-08-18T08:17:06;4.70;;;2.43;;
13349;SDS011;6744;53.190;6.576;2022-08-18T08:22:15;4.70;;;2.17;;
13349;SDS011;6744;53.190;6.576;2022-08-18T08:24:49;4.13;;;2.13;;
13349;SDS011;6744;53.190;6.576;2022-08-18T08:27:41;5.23;;;2.10;;
13349;SDS011;6744;53.190;6.576;2022-08-18T08:30:09;4.63;;;2.17;;
13349;SDS011;6744;53.190;6.576;2022-08-18T08:32:48;2.60;;;1.97;;
13349;SDS011;6744;53.190;6.576;2022-08-18T08:35:35;3.33;;;1.83;;
13349;SDS011;6744;53.190;6.576;2022-08-18T08:38:09;5.20;;;2.10;;
13349;SDS011;6744;53.190;6.576;2022-08-18T08:41:09;4.40;;;2.17;;
13349;SDS011;6744;53.190;6.576;2022-08-18T08:43:39;4.47;;;2.07;;
13349;SDS011;6744;53.190;6.576;2022-08-18T08:46:18;4.20;;;1.70;;
13349;SDS011;6744;53.190;6.576;2022-08-18T08:48:51;2.93;;;1.70;;
13349;SDS011;6744;53.190;6.576;2022-08-18T08:51:48;2.90;;;1.70;;
13349;SDS011;6744;53.190;6.576;2022-08-18T08:54:22;3.00;;;2.13;;
13349;SDS011;6744;53.190;6.576;2022-08-18T08:56:52;3.63;;;1.70;;
13349;SDS011;6744;53.190;6.576;2022-08-18T08:59:20;4.70;;;2.10;;
13349;SDS011;6744;53.190;6.576;2022-08-18T09:09:54;4.20;;;1.90;;
13349;SDS011;6744;53.190;6.576;2022-08-18T09:15:29;3.93;;;2.20;;
13349;SDS011;6744;53.190;6.576;2022-08-18T09:18:32;4.13;;;1.83;;
13349;SDS011;6744;53.190;6.576;2022-08-18T09:24:30;4.47;;;1.70;;
13349;SDS011;6744;53.190;6.576;2022-08-18T09:27:10;4.27;;;2.00;;
13349;SDS011;6744;53.190;6.576;2022-08-18T09:29:50;4.63;;;2.10;;
13349;SDS011;6744;53.190;6.576;2022-08-18T09:38:07;4.10;;;2.00;;
13349;SDS011;6744;53.190;6.576;2022-08-18T09:40:58;4.67;;;2.13;;
13349;SDS011;6744;53.190;6.576;2022-08-18T09:43:56;6.10;;;2.07;;
13349;SDS011;6744;53.190;6.576;2022-08-18T09:51:51;3.63;;;1.83;;
13349;SDS011;6744;53.190;6.576;2022-08-18T09:54:22;4.33;;;2.27;;
13349;SDS011;6744;53.190;6.576;2022-08-18T10:07:40;3.33;;;1.70;;
13349;SDS011;6744;53.190;6.576;2022-08-18T10:15:44;3.40;;;1.70;;
13349;SDS011;6744;53.190;6.576;2022-08-18T10:18:22;3.37;;;1.53;;
13349;SDS011;6744;53.190;6.576;2022-08-18T10:29:01;3.30;;;1.80;;
13349;SDS011;6744;53.190;6.576;2022-08-18T10:31:38;2.03;;;1.50;;
13349;SDS011;6744;53.190;6.576;2022-08-18T10:50:50;3.67;;;1.97;;
13349;SDS011;6744;53.190;6.576;2022-08-18T10:55:52;4.70;;;1.80;;
13349;SDS011;6744;53.190;6.576;2022-08-18T10:58:38;3.37;;;1.93;;
13349;SDS011;6744;53.190;6.576;2022-08-18T11:04:11;2.97;;;1.53;;
13349;SDS011;6744;53.190;6.576;2022-08-18T11:06:50;3.10;;;1.63;;
13349;SDS011;6744;53.190;6.576;2022-08-18T11:09:25;2.50;;;1.70;;
13349;SDS011;6744;53.190;6.576;2022-08-18T11:11:53;4.50;;;1.87;;
13349;SDS011;6744;53.190;6.576;2022-08-18T11:19:44;5.27;;;2.00;;
13349;SDS011;6744;53.190;6.576;2022-08-18T11:22:23;3.20;;;1.70;;
13349;SDS011;6744;53.190;6.576;2022-08-18T11:24:52;3.87;;;1.80;;
13349;SDS011;6744;53.190;6.576;2022-08-18T11:27:19;3.43;;;2.30;;
13349;SDS011;6744;53.190;6.576;2022-08-18T11:29:49;2.97;;;1.93;;
13349;SDS011;6744;53.190;6.576;2022-08-18T11:32:29;4.87;;;2.37;;
13349;SDS011;6744;53.190;6.576;2022-08-18T11:35:00;3.40;;;2.07;;
13349;SDS011;6744;53.190;6.576;2022-08-18T11:40:00;2.23;;;1.93;;
13349;SDS011;6744;53.190;6.576;2022-08-18T11:42:30;3.00;;;1.83;;
13349;SDS011;6744;53.190;6.576;2022-08-18T11:45:01;2.53;;;1.97;;
13349;SDS011;6744;53.190;6.576;2022-08-18T11:47:28;3.73;;;2.10;;
13349;SDS011;6744;53.190;6.576;2022-08-18T11:50:05;4.07;;;2.13;;
13349;SDS011;6744;53.190;6.576;2022-08-18T11:52:32;2.77;;;1.90;;
13349;SDS011;6744;53.190;6.576;2022-08-18T11:55:16;2.87;;;1.90;;
13349;SDS011;6744;53.190;6.576;2022-08-18T11:57:51;3.03;;;1.77;;
13349;SDS011;6744;53.190;6.576;2022-08-18T12:05:57;3.37;;;1.70;;
13349;SDS011;6744;53.190;6.576;2022-08-18T12:08:34;2.10;;;1.73;;
13349;SDS011;6744;53.190;6.576;2022-08-18T12:11:21;4.30;;;1.90;;
13349;SDS011;6744;53.190;6.576;2022-08-18T12:13:56;3.90;;;1.97;;
13349;SDS011;6744;53.190;6.576;2022-08-18T12:16:37;3.57;;;1.90;;
13349;SDS011;6744;53.190;6.576;2022-08-18T12:19:06;2.67;;;1.77;;
13349;SDS011;6744;53.190;6.576;2022-08-18T12:21:37;2.83;;;1.90;;
13349;SDS011;6744;53.190;6.576;2022-08-18T12:24:05;3.73;;;1.90;;
13349;SDS011;6744;53.190;6.576;2022-08-18T12:26:37;2.70;;;1.87;;
13349;SDS011;6744;53.190;6.576;2022-08-18T12:29:03;3.80;;;2.07;;
13349;SDS011;6744;53.190;6.576;2022-08-18T12:31:28;2.27;;;1.67;;
13349;SDS011;6744;53.190;6.576;2022-08-18T12:33:53;2.53;;;1.80;;
13349;SDS011;6744;53.190;6.576;2022-08-18T12:36:19;2.93;;;1.73;;
13349;SDS011;6744;53.190;6.576;2022-08-18T12:38:44;1.50;;;1.40;;
13349;SDS011;6744;53.190;6.576;2022-08-18T12:41:10;2.53;;;1.80;;
13349;SDS011;6744;53.190;6.576;2022-08-18T12:43:36;2.73;;;1.63;;
13349;SDS011;6744;53.190;6.576;2022-08-18T12:46:03;4.07;;;1.90;;
13349;SDS011;6744;53.190;6.576;2022-08-18T12:48:29;3.13;;;1.63;;
13349;SDS011;6744;53.190;6.576;2022-08-18T12:50:55;3.50;;;1.77;;
13349;SDS011;6744;53.190;6.576;2022-08-18T12:53:21;2.33;;;1.80;;
13349;SDS011;6744;53.190;6.576;2022-08-18T12:55:47;3.10;;;1.63;;
13349;SDS011;6744;53.190;6.576;2022-08-18T12:58:13;3.60;;;1.93;;
13349;SDS011;6744;53.190;6.576;2022-08-18T13:00:38;4.07;;;1.70;;
13349;SDS011;6744;53.190;6.576;2022-08-18T13:03:05;2.93;;;1.70;;
13349;SDS011;6744;53.190;6.576;2022-08-18T13:05:31;1.90;;;1.70;;
13349;SDS011;6744;53.190;6.576;2022-08-18T13:07:56;2.10;;;1.70;;
13349;SDS011;6744;53.190;6.576;2022-08-18T13:10:23;3.43;;;1.70;;
13349;SDS011;6744;53.190;6.576;2022-08-18T13:12:48;1.67;;;1.57;;
13349;SDS011;6744;53.190;6.576;2022-08-18T13:15:13;2.53;;;1.50;;
13349;SDS011;6744;53.190;6.576;2022-08-18T13:17:39;2.10;;;1.80;;
13349;SDS011;6744;53.190;6.576;2022-08-18T13:20:06;1.87;;;1.50;;
13349;SDS011;6744;53.190;6.576;2022-08-18T13:22:35;2.63;;;1.63;;
13349;SDS011;6744;53.190;6.576;2022-08-18T13:25:02;2.10;;;1.70;;
13349;SDS011;6744;53.190;6.576;2022-08-18T13:27:28;3.40;;;1.70;;
13349;SDS011;6744;53.190;6.576;2022-08-18T13:29:53;2.60;;;1.80;;
13349;SDS011;6744;53.190;6.576;2022-08-18T13:32:20;2.40;;;1.90;;
13349;SDS011;6744;53.190;6.576;2022-08-18T13:34:45;2.00;;;1.50;;
13349;SDS011;6744;53.190;6.576;2022-08-18T13:37:10;2.57;;;1.57;;
13349;SDS011;6744;53.190;6.576;2022-08-18T13:39:36;2.33;;;1.40;;
13349;SDS011;6744;53.190;6.576;2022-08-18T13:42:01;2.57;;;1.67;;
13349;SDS011;6744;53.190;6.576;2022-08-18T13:44:27;2.00;;;1.67;;
13349;SDS011;6744;53.190;6.576;2022-08-18T13:46:53;3.17;;;1.67;;
13349;SDS011;6744;53.190;6.576;2022-08-18T13:49:21;1.83;;;1.40;;
13349;SDS011;6744;53.190;6.576;2022-08-18T13:51:48;1.60;;;1.50;;
13349;SDS011;6744;53.190;6.576;2022-08-18T13:54:20;2.33;;;1.80;;
13349;SDS011;6744;53.190;6.576;2022-08-18T13:56:47;2.03;;;1.57;;
13349;SDS011;6744;53.190;6.576;2022-08-18T13:59:12;2.10;;;1.53;;
13349;SDS011;6744;53.190;6.576;2022-08-18T14:01:39;2.47;;;1.60;;
13349;SDS011;6744;53.190;6.576;2022-08-18T14:04:05;2.43;;;1.80;;
13349;SDS011;6744;53.190;6.576;2022-08-18T14:06:31;2.50;;;1.53;;
13349;SDS011;6744;53.190;6.576;2022-08-18T14:08:56;2.73;;;1.53;;
13349;SDS011;6744;53.190;6.576;2022-08-18T14:11:24;1.63;;;1.53;;
13349;SDS011;6744;53.190;6.576;2022-08-18T14:13:52;1.60;;;1.50;;
13349;SDS011;6744;53.190;6.576;2022-08-18T14:16:18;1.70;;;1.50;;
13349;SDS011;6744;53.190;6.576;2022-08-18T14:18:45;3.03;;;1.57;;
13349;SDS011;6744;53.190;6.576;2022-08-18T14:21:31;1.80;;;1.53;;
13349;SDS011;6744;53.190;6.576;2022-08-18T14:24:15;2.87;;;1.50;;
13349;SDS011;6744;53.190;6.576;2022-08-18T14:26:59;1.87;;;1.50;;
13349;SDS011;6744;53.190;6.576;2022-08-18T14:29:25;3.23;;;1.67;;
13349;SDS011;6744;53.190;6.576;2022-08-18T14:31:50;1.50;;;1.40;;
13349;SDS011;6744;53.190;6.576;2022-08-18T14:34:16;3.10;;;1.70;;
13349;SDS011;6744;53.190;6.576;2022-08-18T14:36:41;2.47;;;1.47;;
13349;SDS011;6744;53.190;6.576;2022-08-18T14:39:06;2.07;;;1.33;;
13349;SDS011;6744;53.190;6.576;2022-08-18T14:41:32;1.83;;;1.50;;
13349;SDS011;6744;53.190;6.576;2022-08-18T14:43:58;1.57;;;1.47;;
13349;SDS011;6744;53.190;6.576;2022-08-18T14:46:25;1.83;;;1.70;;
13349;SDS011;6744;53.190;6.576;2022-08-18T14:48:50;1.57;;;1.47;;
13349;SDS011;6744;53.190;6.576;2022-08-18T14:51:15;4.03;;;1.70;;
13349;SDS011;6744;53.190;6.576;2022-08-18T14:53:41;1.93;;;1.60;;
13349;SDS011;6744;53.190;6.576;2022-08-18T14:56:06;2.33;;;1.83;;
13349;SDS011;6744;53.190;6.576;2022-08-18T14:58:32;1.60;;;1.40;;
13349;SDS011;6744;53.190;6.576;2022-08-18T15:01:00;1.87;;;1.67;;
13349;SDS011;6744;53.190;6.576;2022-08-18T15:03:28;1.90;;;1.80;;
13349;SDS011;6744;53.190;6.576;2022-08-18T15:05:54;1.67;;;1.57;;
13349;SDS011;6744;53.190;6.576;2022-08-18T15:08:20;1.60;;;1.47;;
13349;SDS011;6744;53.190;6.576;2022-08-18T15:10:46;2.13;;;1.37;;
13349;SDS011;6744;53.190;6.576;2022-08-18T15:13:11;1.60;;;1.50;;
13349;SDS011;6744;53.190;6.576;2022-08-18T15:15:37;1.60;;;1.50;;
13349;SDS011;6744;53.190;6.576;2022-08-18T15:18:02;2.53;;;1.60;;
13349;SDS011;6744;53.190;6.576;2022-08-18T15:20:28;2.47;;;1.60;;
13349;SDS011;6744;53.190;6.576;2022-08-18T15:22:54;2.17;;;1.73;;
13349;SDS011;6744;53.190;6.576;2022-08-18T15:25:43;1.97;;;1.70;;
13349;SDS011;6744;53.190;6.576;2022-08-18T15:28:13;1.93;;;1.43;;
13349;SDS011;6744;53.190;6.576;2022-08-18T15:30:44;2.00;;;1.60;;
13349;SDS011;6744;53.190;6.576;2022-08-18T15:33:11;2.27;;;1.60;;
13349;SDS011;6744;53.190;6.576;2022-08-18T15:35:39;2.10;;;1.80;;
13349;SDS011;6744;53.190;6.576;2022-08-18T15:38:06;2.00;;;1.70;;
13349;SDS011;6744;53.190;6.576;2022-08-18T15:40:32;1.77;;;1.43;;
13349;SDS011;6744;53.190;6.576;2022-08-18T15:42:58;2.03;;;1.80;;
13349;SDS011;6744;53.190;6.576;2022-08-18T15:45:29;2.27;;;1.80;;
13349;SDS011;6744;53.190;6.576;2022-08-18T15:47:59;2.33;;;1.67;;
13349;SDS011;6744;53.190;6.576;2022-08-18T15:50:25;2.00;;;1.70;;
13349;SDS011;6744;53.190;6.576;2022-08-18T15:52:53;2.30;;;1.60;;
13349;SDS011;6744;53.190;6.576;2022-08-18T15:55:22;2.73;;;1.90;;
13349;SDS011;6744;53.190;6.576;2022-08-18T15:57:48;1.60;;;1.50;;
13349;SDS011;6744;53.190;6.576;2022-08-18T16:00:14;3.93;;;2.20;;
13349;SDS011;6744;53.190;6.576;2022-08-18T16:02:46;2.37;;;1.67;;
13349;SDS011;6744;53.190;6.576;2022-08-18T16:05:13;2.83;;;1.60;;
13349;SDS011;6744;53.190;6.576;2022-08-18T16:07:38;1.80;;;1.63;;
13349;SDS011;6744;53.190;6.576;2022-08-18T16:10:07;1.83;;;1.73;;
13349;SDS011;6744;53.190;6.576;2022-08-18T16:12:33;2.00;;;1.80;;
13349;SDS011;6744;53.190;6.576;2022-08-18T16:14:59;2.40;;;2.13;;
13349;SDS011;6744;53.190;6.576;2022-08-18T16:17:24;2.20;;;1.57;;
13349;SDS011;6744;53.190;6.576;2022-08-18T16:19:49;2.13;;;1.83;;
13349;SDS011;6744;53.190;6.576;2022-08-18T16:22:15;2.43;;;1.70;;
13349;SDS011;6744;53.190;6.576;2022-08-18T16:24:40;2.10;;;1.73;;
13349;SDS011;6744;53.190;6.576;2022-08-18T16:27:06;2.27;;;1.67;;
13349;SDS011;6744;53.190;6.576;2022-08-18T16:29:32;2.63;;;1.93;;
13349;SDS011;6744;53.190;6.576;2022-08-18T16:31:58;1.67;;;1.57;;
13349;SDS011;6744;53.190;6.576;2022-08-18T16:34:23;3.17;;;1.87;;
13349;SDS011;6744;53.190;6.576;2022-08-18T16:36:50;2.33;;;1.80;;
13349;SDS011;6744;53.190;6.576;2022-08-18T16:39:15;2.07;;;1.63;;
13349;SDS011;6744;53.190;6.576;2022-08-18T16:41:40;2.93;;;1.60;;
13349;SDS011;6744;53.190;6.576;2022-08-18T16:44:06;1.60;;;1.50;;
13349;SDS011;6744;53.190;6.576;2022-08-18T16:46:32;2.63;;;1.70;;
13349;SDS011;6744;53.190;6.576;2022-08-18T16:48:57;2.47;;;1.80;;
13349;SDS011;6744;53.190;6.576;2022-08-18T16:51:24;2.20;;;1.80;;
13349;SDS011;6744;53.190;6.576;2022-08-18T16:53:50;2.17;;;1.60;;
13349;SDS011;6744;53.190;6.576;2022-08-18T16:56:19;2.37;;;1.50;;
13349;SDS011;6744;53.190;6.576;2022-08-18T16:58:48;1.87;;;1.50;;
13349;SDS011;6744;53.190;6.576;2022-08-18T17:01:33;2.07;;;1.30;;
13349;SDS011;6744;53.190;6.576;2022-08-18T17:04:18;3.30;;;1.67;;
13349;SDS011;6744;53.190;6.576;2022-08-18T17:06:47;2.70;;;1.60;;
13349;SDS011;6744;53.190;6.576;2022-08-18T17:09:13;1.80;;;1.60;;
13349;SDS011;6744;53.190;6.576;2022-08-18T17:11:38;2.03;;;1.40;;
13349;SDS011;6744;53.190;6.576;2022-08-18T17:14:04;2.50;;;1.80;;
13349;SDS011;6744;53.190;6.576;2022-08-18T17:16:31;2.33;;;1.77;;
13349;SDS011;6744;53.190;6.576;2022-08-18T17:18:58;3.87;;;2.13;;
13349;SDS011;6744;53.190;6.576;2022-08-18T17:21:26;1.70;;;1.57;;
13349;SDS011;6744;53.190;6.576;2022-08-18T17:23:54;2.30;;;1.57;;
13349;SDS011;6744;53.190;6.576;2022-08-18T17:31:34;1.87;;;1.77;;
13349;SDS011;6744;53.190;6.576;2022-08-18T17:34:03;3.40;;;2.90;;
13349;SDS011;6744;53.190;6.576;2022-08-18T17:36:46;4.10;;;1.80;;
13349;SDS011;6744;53.190;6.576;2022-08-18T17:39:14;2.67;;;1.70;;
13349;SDS011;6744;53.190;6.576;2022-08-18T17:41:41;2.67;;;1.73;;
13349;SDS011;6744;53.190;6.576;2022-08-18T17:44:25;1.60;;;1.30;;
13349;SDS011;6744;53.190;6.576;2022-08-18T17:46:51;2.53;;;2.00;;